sensor_id;sensor_type;location;lat;lon;timestamp;temperature;humidity
9486;DHT22;4781;48.776;9.200;2023-04-21T00:01:18;5.70;99.90
9486;DHT22;4781;48.776;9.200;2023-04-21T00:03:46;5.60;99.90
9486;DHT22;4781;48.776;9.200;2023-04-21T00:06:16;5.50;99.90
9486;DHT22;4781;48.776;9.200;2023-04-21T00:08:49;5.50;99.90
9486;DHT22;4781;48.776;9.200;2023-04-21T00:11:17;5.50;99.90
9486;DHT22;4781;48.776;9.200;2023-04-21T00:13:46;5.50;99.90
9486;DHT22;4781;48.776;9.200;2023-04-21T00:16:14;5.40;99.90
9486;DHT22;4781;48.776;9.200;2023-04-21T00:18:42;5.40;99.90
9486;DHT22;4781;48.776;9.200;2023-04-21T00:21:11;5.30;99.90
9486;DHT22;4781;48.776;9.200;2023-04-21T00:23:39;5.20;99.90
9486;DHT22;4781;48.776;9.200;2023-04-21T00:26:08;5.20;99.90
9486;DHT22;4781;48.776;9.200;2023-04-21T00:28:36;5.20;99.90
9486;DHT22;4781;48.776;9.200;2023-04-21T00:31:05;5.10;99.90
9486;DHT22;4781;48.776;9.200;2023-04-21T00:33:33;5.10;99.90
9486;DHT22;4781;48.776;9.200;2023-04-21T00:36:01;5.20;99.90
9486;DHT22;4781;48.776;9.200;2023-04-21T00:38:43;5.20;99.90
9486;DHT22;4781;48.776;9.200;2023-04-21T00:41:12;5.30;99.90
9486;DHT22;4781;48.776;9.200;2023-04-21T00:43:59;5.30;99.90
9486;DHT22;4781;48.776;9.200;2023-04-21T00:46:29;5.30;99.90
9486;DHT22;4781;48.776;9.200;2023-04-21T00:48:58;5.30;99.90
9486;DHT22;4781;48.776;9.200;2023-04-21T00:51:28;5.20;99.90
9486;DHT22;4781;48.776;9.200;2023-04-21T00:53:59;5.30;99.90
9486;DHT22;4781;48.776;9.200;2023-04-21T00:56:31;5.20;99.90
9486;DHT22;4781;48.776;9.200;2023-04-21T00:59:00;5.20;99.90
9486;DHT22;4781;48.776;9.200;2023-04-21T01:01:30;5.20;99.90
9486;DHT22;4781;48.776;9.200;2023-04-21T01:04:00;5.20;99.90
9486;DHT22;4781;48.776;9.200;2023-04-21T01:06:30;5.20;99.90
9486;DHT22;4781;48.776;9.200;2023-04-21T01:08:59;5.20;99.90
9486;DHT22;4781;48.776;9.200;2023-04-21T01:11:30;5.20;99.90
9486;DHT22;4781;48.776;9.200;2023-04-21T01:13:58;5.20;99.90
9486;DHT22;4781;48.776;9.200;2023-04-21T01:16:27;5.20;99.90
9486;DHT22;4781;48.776;9.200;2023-04-21T01:18:55;5.20;99.90
9486;DHT22;4781;48.776;9.200;2023-04-21T01:21:24;5.20;99.90
9486;DHT22;4781;48.776;9.200;2023-04-21T01:23:54;5.10;99.90
9486;DHT22;4781;48.776;9.200;2023-04-21T01:26:23;5.10;99.90
9486;DHT22;4781;48.776;9.200;2023-04-21T01:28:51;5.10;99.90
9486;DHT22;4781;48.776;9.200;2023-04-21T01:31:23;5.00;99.90
9486;DHT22;4781;48.776;9.200;2023-04-21T01:33:52;5.00;99.90
9486;DHT22;4781;48.776;9.200;2023-04-21T01:36:21;4.90;99.90
9486;DHT22;4781;48.776;9.200;2023-04-21T01:38:49;4.90;99.90
9486;DHT22;4781;48.776;9.200;2023-04-21T01:41:17;4.80;99.90
9486;DHT22;4781;48.776;9.200;2023-04-21T01:43:46;4.80;99.90
9486;DHT22;4781;48.776;9.200;2023-04-21T01:46:15;4.70;99.90
9486;DHT22;4781;48.776;9.200;2023-04-21T01:49:04;4.70;99.90
9486;DHT22;4781;48.776;9.200;2023-04-21T01:51:32;4.70;99.90
9486;DHT22;4781;48.776;9.200;2023-04-21T01:54:00;4.80;99.90
9486;DHT22;4781;48.776;9.200;2023-04-21T01:56:29;4.80;99.90
9486;DHT22;4781;48.776;9.200;2023-04-21T01:58:57;4.80;99.90
9486;DHT22;4781;48.776;9.200;2023-04-21T02:01:26;4.90;99.90
9486;DHT22;4781;48.776;9.200;2023-04-21T02:03:54;4.90;99.90
9486;DHT22;4781;48.776;9.200;2023-04-21T02:06:23;4.90;99.90
9486;DHT22;4781;48.776;9.200;2023-04-21T02:08:51;4.80;99.90
9486;DHT22;4781;48.776;9.200;2023-04-21T02:11:20;4.70;99.90
9486;DHT22;4781;48.776;9.200;2023-04-21T02:13:56;4.70;99.90
9486;DHT22;4781;48.776;9.200;2023-04-21T02:16:21;4.60;99.90
9486;DHT22;4781;48.776;9.200;2023-04-21T02:18:54;4.50;99.90
9486;DHT22;4781;48.776;9.200;2023-04-21T02:21:23;4.50;99.90
9486;DHT22;4781;48.776;9.200;2023-04-21T02:23:52;4.50;99.90
9486;DHT22;4781;48.776;9.200;2023-04-21T02:26:20;4.40;99.90
9486;DHT22;4781;48.776;9.200;2023-04-21T02:28:49;4.40;99.90
9486;DHT22;4781;48.776;9.200;2023-04-21T02:34:07;4.30;99.90
9486;DHT22;4781;48.776;9.200;2023-04-21T02:36:35;4.30;99.90
9486;DHT22;4781;48.776;9.200;2023-04-21T02:39:04;4.20;99.90
9486;DHT22;4781;48.776;9.200;2023-04-21T02:41:32;4.20;99.90
9486;DHT22;4781;48.776;9.200;2023-04-21T02:44:00;4.20;99.90
9486;DHT22;4781;48.776;9.200;2023-04-21T02:46:29;4.10;99.90
9486;DHT22;4781;48.776;9.200;2023-04-21T02:48:57;4.10;99.90
9486;DHT22;4781;48.776;9.200;2023-04-21T02:51:26;4.10;99.90
9486;DHT22;4781;48.776;9.200;2023-04-21T02:53:54;4.00;99.90
9486;DHT22;4781;48.776;9.200;2023-04-21T02:56:23;4.10;99.90
9486;DHT22;4781;48.776;9.200;2023-04-21T02:58:51;4.00;99.90
9486;DHT22;4781;48.776;9.200;2023-04-21T03:01:19;4.00;99.90
9486;DHT22;4781;48.776;9.200;2023-04-21T03:03:48;4.00;99.90
9486;DHT22;4781;48.776;9.200;2023-04-21T03:06:16;4.00;99.90
9486;DHT22;4781;48.776;9.200;2023-04-21T03:08:45;3.90;99.90
9486;DHT22;4781;48.776;9.200;2023-04-21T03:11:13;3.90;99.90
9486;DHT22;4781;48.776;9.200;2023-04-21T03:13:41;3.90;99.90
9486;DHT22;4781;48.776;9.200;2023-04-21T03:16:10;3.90;99.90
9486;DHT22;4781;48.776;9.200;2023-04-21T03:18:58;3.90;99.90
9486;DHT22;4781;48.776;9.200;2023-04-21T03:21:26;3.90;99.90
9486;DHT22;4781;48.776;9.200;2023-04-21T03:23:55;3.90;99.90
9486;DHT22;4781;48.776;9.200;2023-04-21T03:26:23;3.80;99.90
9486;DHT22;4781;48.776;9.200;2023-04-21T03:28:51;3.80;99.90
9486;DHT22;4781;48.776;9.200;2023-04-21T03:31:20;3.90;99.90
9486;DHT22;4781;48.776;9.200;2023-04-21T03:33:48;3.90;99.90
9486;DHT22;4781;48.776;9.200;2023-04-21T03:36:16;3.90;99.90
9486;DHT22;4781;48.776;9.200;2023-04-21T03:38:45;3.80;99.90
9486;DHT22;4781;48.776;9.200;2023-04-21T03:41:13;3.90;99.90
9486;DHT22;4781;48.776;9.200;2023-04-21T03:43:41;3.90;99.90
9486;DHT22;4781;48.776;9.200;2023-04-21T03:46:17;3.80;99.90
9486;DHT22;4781;48.776;9.200;2023-04-21T03:48:47;3.90;99.90
9486;DHT22;4781;48.776;9.200;2023-04-21T03:51:15;3.90;99.90
9486;DHT22;4781;48.776;9.200;2023-04-21T03:53:44;3.80;99.90
9486;DHT22;4781;48.776;9.200;2023-04-21T03:56:12;3.90;99.90
9486;DHT22;4781;48.776;9.200;2023-04-21T03:58:40;3.90;99.90
9486;DHT22;4781;48.776;9.200;2023-04-21T04:01:09;3.90;99.90
9486;DHT22;4781;48.776;9.200;2023-04-21T04:03:37;3.90;99.90
9486;DHT22;4781;48.776;9.200;2023-04-21T04:06:06;4.00;99.90
9486;DHT22;4781;48.776;9.200;2023-04-21T04:08:34;3.90;99.90
9486;DHT22;4781;48.776;9.200;2023-04-21T04:11:02;4.00;99.90
9486;DHT22;4781;48.776;9.200;2023-04-21T04:13:31;3.90;99.90
9486;DHT22;4781;48.776;9.200;2023-04-21T04:15:59;3.90;99.90
9486;DHT22;4781;48.776;9.200;2023-04-21T04:18:28;3.90;99.90
9486;DHT22;4781;48.776;9.200;2023-04-21T04:20:56;3.90;99.90
9486;DHT22;4781;48.776;9.200;2023-04-21T04:23:24;3.90;99.90
9486;DHT22;4781;48.776;9.200;2023-04-21T04:25:53;3.90;99.90
9486;DHT22;4781;48.776;9.200;2023-04-21T04:28:22;3.90;99.90
9486;DHT22;4781;48.776;9.200;2023-04-21T04:30:51;3.90;99.90
9486;DHT22;4781;48.776;9.200;2023-04-21T04:33:20;3.90;99.90
9486;DHT22;4781;48.776;9.200;2023-04-21T04:35:49;3.90;99.90
9486;DHT22;4781;48.776;9.200;2023-04-21T04:38:18;3.90;99.90
9486;DHT22;4781;48.776;9.200;2023-04-21T04:40:54;3.90;99.90
9486;DHT22;4781;48.776;9.200;2023-04-21T04:43:27;3.90;99.90
9486;DHT22;4781;48.776;9.200;2023-04-21T04:45:58;4.00;99.90
9486;DHT22;4781;48.776;9.200;2023-04-21T04:48:26;4.00;99.90
9486;DHT22;4781;48.776;9.200;2023-04-21T04:50:55;4.00;99.90
9486;DHT22;4781;48.776;9.200;2023-04-21T04:53:23;4.00;99.90
9486;DHT22;4781;48.776;9.200;2023-04-21T04:55:52;4.00;99.90
9486;DHT22;4781;48.776;9.200;2023-04-21T04:58:20;4.00;99.90
9486;DHT22;4781;48.776;9.200;2023-04-21T05:00:48;4.00;99.90
9486;DHT22;4781;48.776;9.200;2023-04-21T05:03:17;4.10;99.90
9486;DHT22;4781;48.776;9.200;2023-04-21T05:05:45;4.10;99.90
9486;DHT22;4781;48.776;9.200;2023-04-21T05:08:13;4.20;99.90
9486;DHT22;4781;48.776;9.200;2023-04-21T05:10:42;4.30;99.90
9486;DHT22;4781;48.776;9.200;2023-04-21T05:13:10;4.40;99.90
9486;DHT22;4781;48.776;9.200;2023-04-21T05:15:39;4.40;99.90
9486;DHT22;4781;48.776;9.200;2023-04-21T05:18:07;4.40;99.90
9486;DHT22;4781;48.776;9.200;2023-04-21T05:20:35;4.40;99.90
9486;DHT22;4781;48.776;9.200;2023-04-21T05:23:05;4.40;99.90
9486;DHT22;4781;48.776;9.200;2023-04-21T05:25:34;4.50;99.90
9486;DHT22;4781;48.776;9.200;2023-04-21T05:28:04;4.50;99.90
9486;DHT22;4781;48.776;9.200;2023-04-21T05:30:32;4.50;99.90
9486;DHT22;4781;48.776;9.200;2023-04-21T05:33:00;4.60;99.90
9486;DHT22;4781;48.776;9.200;2023-04-21T05:35:32;4.60;99.90
9486;DHT22;4781;48.776;9.200;2023-04-21T05:38:01;4.60;99.90
9486;DHT22;4781;48.776;9.200;2023-04-21T05:40:30;4.70;99.90
9486;DHT22;4781;48.776;9.200;2023-04-21T05:42:58;4.60;99.90
9486;DHT22;4781;48.776;9.200;2023-04-21T05:45:26;4.70;99.90
9486;DHT22;4781;48.776;9.200;2023-04-21T05:47:55;4.70;99.90
9486;DHT22;4781;48.776;9.200;2023-04-21T05:50:23;4.80;99.90
9486;DHT22;4781;48.776;9.200;2023-04-21T05:53:13;5.00;99.90
9486;DHT22;4781;48.776;9.200;2023-04-21T05:55:41;5.40;99.90
9486;DHT22;4781;48.776;9.200;2023-04-21T05:58:09;5.50;99.90
9486;DHT22;4781;48.776;9.200;2023-04-21T06:00:38;5.50;99.90
9486;DHT22;4781;48.776;9.200;2023-04-21T06:03:06;5.50;99.90
9486;DHT22;4781;48.776;9.200;2023-04-21T06:05:34;5.50;99.90
9486;DHT22;4781;48.776;9.200;2023-04-21T06:08:03;5.70;99.90
9486;DHT22;4781;48.776;9.200;2023-04-21T06:10:31;5.70;99.90
9486;DHT22;4781;48.776;9.200;2023-04-21T06:13:00;5.70;99.90
9486;DHT22;4781;48.776;9.200;2023-04-21T06:15:28;5.80;99.90
9486;DHT22;4781;48.776;9.200;2023-04-21T06:17:57;5.80;99.90
9486;DHT22;4781;48.776;9.200;2023-04-21T06:20:25;5.90;99.90
9486;DHT22;4781;48.776;9.200;2023-04-21T06:22:53;5.90;99.90
9486;DHT22;4781;48.776;9.200;2023-04-21T06:25:22;6.10;99.90
9486;DHT22;4781;48.776;9.200;2023-04-21T06:27:50;6.10;99.90
9486;DHT22;4781;48.776;9.200;2023-04-21T06:30:19;6.10;99.90
9486;DHT22;4781;48.776;9.200;2023-04-21T06:32:47;6.20;99.90
9486;DHT22;4781;48.776;9.200;2023-04-21T06:35:15;6.20;99.90
9486;DHT22;4781;48.776;9.200;2023-04-21T06:37:45;6.30;99.90
9486;DHT22;4781;48.776;9.200;2023-04-21T06:40:14;6.60;99.90
9486;DHT22;4781;48.776;9.200;2023-04-21T06:42:43;6.70;99.90
9486;DHT22;4781;48.776;9.200;2023-04-21T06:45:11;6.80;99.90
9486;DHT22;4781;48.776;9.200;2023-04-21T06:47:39;6.80;99.90
9486;DHT22;4781;48.776;9.200;2023-04-21T06:50:08;6.80;99.90
9486;DHT22;4781;48.776;9.200;2023-04-21T06:52:37;6.80;99.90
9486;DHT22;4781;48.776;9.200;2023-04-21T06:55:06;6.90;99.90
9486;DHT22;4781;48.776;9.200;2023-04-21T06:57:34;7.00;99.90
9486;DHT22;4781;48.776;9.200;2023-04-21T07:00:04;6.90;99.90
9486;DHT22;4781;48.776;9.200;2023-04-21T07:02:33;7.20;99.90
9486;DHT22;4781;48.776;9.200;2023-04-21T07:05:01;7.00;99.90
9486;DHT22;4781;48.776;9.200;2023-04-21T07:07:30;7.00;99.90
9486;DHT22;4781;48.776;9.200;2023-04-21T07:09:58;7.00;99.90
9486;DHT22;4781;48.776;9.200;2023-04-21T07:12:27;7.10;99.90
9486;DHT22;4781;48.776;9.200;2023-04-21T07:14:55;7.10;99.90
9486;DHT22;4781;48.776;9.200;2023-04-21T07:17:23;7.20;99.90
9486;DHT22;4781;48.776;9.200;2023-04-21T07:19:52;7.20;99.90
9486;DHT22;4781;48.776;9.200;2023-04-21T07:22:20;7.20;99.90
9486;DHT22;4781;48.776;9.200;2023-04-21T07:24:49;7.20;99.90
9486;DHT22;4781;48.776;9.200;2023-04-21T07:27:17;7.40;99.90
9486;DHT22;4781;48.776;9.200;2023-04-21T07:29:45;7.40;99.90
9486;DHT22;4781;48.776;9.200;2023-04-21T07:32:14;7.50;99.90
9486;DHT22;4781;48.776;9.200;2023-04-21T07:34:42;7.60;99.90
9486;DHT22;4781;48.776;9.200;2023-04-21T07:37:12;7.60;99.90
9486;DHT22;4781;48.776;9.200;2023-04-21T07:39:40;7.80;99.90
9486;DHT22;4781;48.776;9.200;2023-04-21T07:42:09;7.90;99.90
9486;DHT22;4781;48.776;9.200;2023-04-21T07:44:37;7.90;99.90
9486;DHT22;4781;48.776;9.200;2023-04-21T07:47:06;8.00;99.90
9486;DHT22;4781;48.776;9.200;2023-04-21T07:49:34;8.20;99.90
9486;DHT22;4781;48.776;9.200;2023-04-21T07:52:03;8.30;99.90
9486;DHT22;4781;48.776;9.200;2023-04-21T07:54:31;8.40;99.90
9486;DHT22;4781;48.776;9.200;2023-04-21T07:56:59;8.60;99.90
9486;DHT22;4781;48.776;9.200;2023-04-21T07:59:28;8.60;99.90
9486;DHT22;4781;48.776;9.200;2023-04-21T08:01:56;8.60;99.90
9486;DHT22;4781;48.776;9.200;2023-04-21T08:04:25;8.80;99.90
9486;DHT22;4781;48.776;9.200;2023-04-21T08:06:53;9.00;99.90
9486;DHT22;4781;48.776;9.200;2023-04-21T08:09:22;9.30;99.90
9486;DHT22;4781;48.776;9.200;2023-04-21T08:11:50;9.50;99.90
9486;DHT22;4781;48.776;9.200;2023-04-21T08:14:19;9.60;99.90
9486;DHT22;4781;48.776;9.200;2023-04-21T08:16:48;9.80;99.90
9486;DHT22;4781;48.776;9.200;2023-04-21T08:19:16;10.00;99.90
9486;DHT22;4781;48.776;9.200;2023-04-21T08:21:45;10.30;99.90
9486;DHT22;4781;48.776;9.200;2023-04-21T08:24:13;10.40;99.90
9486;DHT22;4781;48.776;9.200;2023-04-21T08:26:41;10.50;99.90
9486;DHT22;4781;48.776;9.200;2023-04-21T08:29:10;10.80;99.90
9486;DHT22;4781;48.776;9.200;2023-04-21T08:31:39;11.10;99.90
9486;DHT22;4781;48.776;9.200;2023-04-21T08:34:07;11.10;99.90
9486;DHT22;4781;48.776;9.200;2023-04-21T08:36:36;11.00;99.90
9486;DHT22;4781;48.776;9.200;2023-04-21T08:39:04;11.10;99.90
9486;DHT22;4781;48.776;9.200;2023-04-21T08:41:33;11.20;99.90
9486;DHT22;4781;48.776;9.200;2023-04-21T08:44:01;11.40;99.90
9486;DHT22;4781;48.776;9.200;2023-04-21T08:46:31;11.50;99.90
9486;DHT22;4781;48.776;9.200;2023-04-21T08:49:02;11.60;99.90
9486;DHT22;4781;48.776;9.200;2023-04-21T08:51:30;11.70;99.90
9486;DHT22;4781;48.776;9.200;2023-04-21T08:53:59;11.90;99.90
9486;DHT22;4781;48.776;9.200;2023-04-21T08:56:28;12.10;99.90
9486;DHT22;4781;48.776;9.200;2023-04-21T08:58:56;12.40;99.90
9486;DHT22;4781;48.776;9.200;2023-04-21T09:01:25;12.40;99.90
9486;DHT22;4781;48.776;9.200;2023-04-21T09:03:53;12.50;99.90
9486;DHT22;4781;48.776;9.200;2023-04-21T09:06:23;12.60;99.90
9486;DHT22;4781;48.776;9.200;2023-04-21T09:08:53;12.70;99.90
9486;DHT22;4781;48.776;9.200;2023-04-21T09:11:22;12.90;99.90
9486;DHT22;4781;48.776;9.200;2023-04-21T09:13:51;12.90;99.90
9486;DHT22;4781;48.776;9.200;2023-04-21T09:16:22;13.10;99.90
9486;DHT22;4781;48.776;9.200;2023-04-21T09:18:51;12.90;99.90
9486;DHT22;4781;48.776;9.200;2023-04-21T09:21:19;12.90;99.90
9486;DHT22;4781;48.776;9.200;2023-04-21T09:23:50;12.90;99.90
9486;DHT22;4781;48.776;9.200;2023-04-21T09:26:21;12.90;99.90
9486;DHT22;4781;48.776;9.200;2023-04-21T09:28:51;12.90;99.90
9486;DHT22;4781;48.776;9.200;2023-04-21T09:31:21;13.30;99.90
9486;DHT22;4781;48.776;9.200;2023-04-21T09:33:59;13.50;99.90
9486;DHT22;4781;48.776;9.200;2023-04-21T09:36:27;13.60;99.90
9486;DHT22;4781;48.776;9.200;2023-04-21T09:38:59;13.70;99.90
9486;DHT22;4781;48.776;9.200;2023-04-21T09:41:30;13.80;99.90
9486;DHT22;4781;48.776;9.200;2023-04-21T09:43:59;13.90;99.90
9486;DHT22;4781;48.776;9.200;2023-04-21T09:46:34;13.80;99.90
9486;DHT22;4781;48.776;9.200;2023-04-21T09:49:03;14.10;99.90
9486;DHT22;4781;48.776;9.200;2023-04-21T09:51:34;14.10;99.90
9486;DHT22;4781;48.776;9.200;2023-04-21T09:54:08;14.30;99.90
9486;DHT22;4781;48.776;9.200;2023-04-21T09:56:37;14.50;99.90
9486;DHT22;4781;48.776;9.200;2023-04-21T09:59:08;14.70;99.90
9486;DHT22;4781;48.776;9.200;2023-04-21T10:01:39;14.90;99.90
9486;DHT22;4781;48.776;9.200;2023-04-21T10:04:08;15.00;99.90
9486;DHT22;4781;48.776;9.200;2023-04-21T10:06:36;15.00;99.90
9486;DHT22;4781;48.776;9.200;2023-04-21T10:09:05;15.20;99.90
9486;DHT22;4781;48.776;9.200;2023-04-21T10:11:36;15.40;99.90
9486;DHT22;4781;48.776;9.200;2023-04-21T10:14:05;15.20;99.90
9486;DHT22;4781;48.776;9.200;2023-04-21T10:16:35;15.20;99.90
9486;DHT22;4781;48.776;9.200;2023-04-21T10:21:54;14.70;99.90
9486;DHT22;4781;48.776;9.200;2023-04-21T10:24:23;15.40;99.90
9486;DHT22;4781;48.776;9.200;2023-04-21T10:26:59;15.70;99.90
9486;DHT22;4781;48.776;9.200;2023-04-21T10:29:33;15.80;99.90
9486;DHT22;4781;48.776;9.200;2023-04-21T10:32:02;15.90;99.90
9486;DHT22;4781;48.776;9.200;2023-04-21T10:34:37;15.90;99.90
9486;DHT22;4781;48.776;9.200;2023-04-21T10:37:09;16.20;99.90
9486;DHT22;4781;48.776;9.200;2023-04-21T10:39:50;16.20;99.90
9486;DHT22;4781;48.776;9.200;2023-04-21T10:42:22;16.20;99.90
9486;DHT22;4781;48.776;9.200;2023-04-21T10:47:46;16.20;99.90
9486;DHT22;4781;48.776;9.200;2023-04-21T10:50:21;16.20;99.90
9486;DHT22;4781;48.776;9.200;2023-04-21T10:52:56;16.50;99.90
9486;DHT22;4781;48.776;9.200;2023-04-21T10:55:38;16.70;99.90
9486;DHT22;4781;48.776;9.200;2023-04-21T10:58:08;16.70;99.90
9486;DHT22;4781;48.776;9.200;2023-04-21T11:00:37;16.70;99.90
9486;DHT22;4781;48.776;9.200;2023-04-21T11:03:06;16.70;99.90
9486;DHT22;4781;48.776;9.200;2023-04-21T11:05:37;16.50;99.90
9486;DHT22;4781;48.776;9.200;2023-04-21T11:08:13;16.40;99.90
9486;DHT22;4781;48.776;9.200;2023-04-21T11:10:48;16.60;99.90
9486;DHT22;4781;48.776;9.200;2023-04-21T11:13:22;16.70;99.90
9486;DHT22;4781;48.776;9.200;2023-04-21T11:16:01;16.60;99.90
9486;DHT22;4781;48.776;9.200;2023-04-21T11:18:38;16.50;99.90
9486;DHT22;4781;48.776;9.200;2023-04-21T11:21:12;16.50;99.90
9486;DHT22;4781;48.776;9.200;2023-04-21T11:23:53;16.50;99.90
9486;DHT22;4781;48.776;9.200;2023-04-21T11:26:33;16.70;99.90
9486;DHT22;4781;48.776;9.200;2023-04-21T11:29:05;16.90;99.90
9486;DHT22;4781;48.776;9.200;2023-04-21T11:31:38;17.20;99.90
9486;DHT22;4781;48.776;9.200;2023-04-21T11:34:08;17.30;99.90
9486;DHT22;4781;48.776;9.200;2023-04-21T11:36:39;17.40;99.90
9486;DHT22;4781;48.776;9.200;2023-04-21T11:39:10;17.50;99.90
9486;DHT22;4781;48.776;9.200;2023-04-21T11:41:43;17.60;99.90
9486;DHT22;4781;48.776;9.200;2023-04-21T11:44:29;17.70;99.90
9486;DHT22;4781;48.776;9.200;2023-04-21T11:47:22;17.80;99.90
9486;DHT22;4781;48.776;9.200;2023-04-21T11:53:01;17.80;99.90
9486;DHT22;4781;48.776;9.200;2023-04-21T11:55:29;17.80;99.90
9486;DHT22;4781;48.776;9.200;2023-04-21T11:57:59;17.00;99.90
9486;DHT22;4781;48.776;9.200;2023-04-21T12:00:29;17.30;99.90
9486;DHT22;4781;48.776;9.200;2023-04-21T12:02:59;17.30;99.90
9486;DHT22;4781;48.776;9.200;2023-04-21T12:05:35;17.30;99.90
9486;DHT22;4781;48.776;9.200;2023-04-21T12:08:03;17.50;99.90
9486;DHT22;4781;48.776;9.200;2023-04-21T12:10:33;17.80;99.90
9486;DHT22;4781;48.776;9.200;2023-04-21T12:13:01;18.10;99.90
9486;DHT22;4781;48.776;9.200;2023-04-21T12:15:29;18.30;99.90
9486;DHT22;4781;48.776;9.200;2023-04-21T12:17:58;18.20;99.90
9486;DHT22;4781;48.776;9.200;2023-04-21T12:20:28;18.20;99.90
9486;DHT22;4781;48.776;9.200;2023-04-21T12:22:56;18.30;99.90
9486;DHT22;4781;48.776;9.200;2023-04-21T12:25:26;18.50;99.90
9486;DHT22;4781;48.776;9.200;2023-04-21T12:27:57;18.50;99.90
9486;DHT22;4781;48.776;9.200;2023-04-21T12:30:25;18.40;99.90
9486;DHT22;4781;48.776;9.200;2023-04-21T12:32:53;18.50;99.90
9486;DHT22;4781;48.776;9.200;2023-04-21T12:35:22;18.60;99.90
9486;DHT22;4781;48.776;9.200;2023-04-21T12:37:51;18.40;99.90
9486;DHT22;4781;48.776;9.200;2023-04-21T12:40:20;18.50;99.90
9486;DHT22;4781;48.776;9.200;2023-04-21T12:42:49;18.70;99.90
9486;DHT22;4781;48.776;9.200;2023-04-21T12:45:17;18.50;99.90
9486;DHT22;4781;48.776;9.200;2023-04-21T12:47:46;18.60;99.90
9486;DHT22;4781;48.776;9.200;2023-04-21T12:50:15;18.60;99.90
9486;DHT22;4781;48.776;9.200;2023-04-21T12:52:43;18.70;99.90
9486;DHT22;4781;48.776;9.200;2023-04-21T12:55:11;18.90;99.90
9486;DHT22;4781;48.776;9.200;2023-04-21T12:57:40;19.00;99.90
9486;DHT22;4781;48.776;9.200;2023-04-21T13:00:09;19.10;99.90
9486;DHT22;4781;48.776;9.200;2023-04-21T13:02:39;19.20;99.90
9486;DHT22;4781;48.776;9.200;2023-04-21T13:05:08;19.10;99.90
9486;DHT22;4781;48.776;9.200;2023-04-21T13:07:38;19.10;99.90
9486;DHT22;4781;48.776;9.200;2023-04-21T13:10:07;19.30;99.90
9486;DHT22;4781;48.776;9.200;2023-04-21T13:12:36;19.20;99.90
9486;DHT22;4781;48.776;9.200;2023-04-21T13:15:05;19.30;99.90
9486;DHT22;4781;48.776;9.200;2023-04-21T13:17:34;19.40;99.90
9486;DHT22;4781;48.776;9.200;2023-04-21T13:20:03;19.60;99.90
9486;DHT22;4781;48.776;9.200;2023-04-21T13:22:32;19.70;99.90
9486;DHT22;4781;48.776;9.200;2023-04-21T13:25:01;19.60;99.90
9486;DHT22;4781;48.776;9.200;2023-04-21T13:27:30;19.60;99.90
9486;DHT22;4781;48.776;9.200;2023-04-21T13:29:59;19.60;99.90
9486;DHT22;4781;48.776;9.200;2023-04-21T13:32:27;19.70;99.90
9486;DHT22;4781;48.776;9.200;2023-04-21T13:34:56;19.90;99.90
9486;DHT22;4781;48.776;9.200;2023-04-21T13:37:25;20.00;99.90
9486;DHT22;4781;48.776;9.200;2023-04-21T13:39:53;20.10;99.90
9486;DHT22;4781;48.776;9.200;2023-04-21T13:42:21;20.20;99.90
9486;DHT22;4781;48.776;9.200;2023-04-21T13:44:50;20.30;99.90
9486;DHT22;4781;48.776;9.200;2023-04-21T13:47:19;20.30;99.90
9486;DHT22;4781;48.776;9.200;2023-04-21T13:49:47;20.20;99.90
9486;DHT22;4781;48.776;9.200;2023-04-21T13:52:17;20.10;99.90
9486;DHT22;4781;48.776;9.200;2023-04-21T13:54:45;20.30;99.90
9486;DHT22;4781;48.776;9.200;2023-04-21T13:57:13;20.30;99.90
9486;DHT22;4781;48.776;9.200;2023-04-21T13:59:42;20.30;99.90
9486;DHT22;4781;48.776;9.200;2023-04-21T14:02:10;20.30;99.90
9486;DHT22;4781;48.776;9.200;2023-04-21T14:04:38;20.30;99.90
9486;DHT22;4781;48.776;9.200;2023-04-21T14:07:07;20.00;99.90
9486;DHT22;4781;48.776;9.200;2023-04-21T14:09:35;19.80;99.90
9486;DHT22;4781;48.776;9.200;2023-04-21T14:12:04;20.00;99.90
9486;DHT22;4781;48.776;9.200;2023-04-21T14:14:32;20.00;99.90
9486;DHT22;4781;48.776;9.200;2023-04-21T14:17:01;20.00;99.90
9486;DHT22;4781;48.776;9.200;2023-04-21T14:19:29;19.90;99.90
9486;DHT22;4781;48.776;9.200;2023-04-21T14:21:57;20.00;99.90
9486;DHT22;4781;48.776;9.200;2023-04-21T14:24:26;20.20;99.90
9486;DHT22;4781;48.776;9.200;2023-04-21T14:26:55;20.20;99.90
9486;DHT22;4781;48.776;9.200;2023-04-21T14:29:24;20.40;99.90
9486;DHT22;4781;48.776;9.200;2023-04-21T14:31:52;20.30;99.90
9486;DHT22;4781;48.776;9.200;2023-04-21T14:34:24;20.50;99.90
9486;DHT22;4781;48.776;9.200;2023-04-21T14:36:53;20.50;99.90
9486;DHT22;4781;48.776;9.200;2023-04-21T14:39:21;20.50;99.90
9486;DHT22;4781;48.776;9.200;2023-04-21T14:41:50;20.70;99.90
9486;DHT22;4781;48.776;9.200;2023-04-21T14:44:18;20.40;99.90
9486;DHT22;4781;48.776;9.200;2023-04-21T14:46:47;20.30;99.90
9486;DHT22;4781;48.776;9.200;2023-04-21T14:49:15;20.60;99.90
9486;DHT22;4781;48.776;9.200;2023-04-21T14:51:44;20.20;99.90
9486;DHT22;4781;48.776;9.200;2023-04-21T14:54:14;20.00;99.90
9486;DHT22;4781;48.776;9.200;2023-04-21T14:56:42;20.20;99.90
9486;DHT22;4781;48.776;9.200;2023-04-21T14:59:11;20.00;99.90
9486;DHT22;4781;48.776;9.200;2023-04-21T15:01:39;20.00;99.90
9486;DHT22;4781;48.776;9.200;2023-04-21T15:04:07;20.30;99.90
9486;DHT22;4781;48.776;9.200;2023-04-21T15:06:36;20.50;99.90
9486;DHT22;4781;48.776;9.200;2023-04-21T15:09:04;20.70;99.90
9486;DHT22;4781;48.776;9.200;2023-04-21T15:11:33;20.80;99.90
9486;DHT22;4781;48.776;9.200;2023-04-21T15:14:01;20.50;99.90
9486;DHT22;4781;48.776;9.200;2023-04-21T15:16:29;20.40;99.90
9486;DHT22;4781;48.776;9.200;2023-04-21T15:18:58;20.50;99.90
9486;DHT22;4781;48.776;9.200;2023-04-21T15:21:26;20.40;99.90
9486;DHT22;4781;48.776;9.200;2023-04-21T15:23:55;20.50;99.90
9486;DHT22;4781;48.776;9.200;2023-04-21T15:26:23;20.20;99.90
9486;DHT22;4781;48.776;9.200;2023-04-21T15:28:52;20.20;99.90
9486;DHT22;4781;48.776;9.200;2023-04-21T15:31:20;19.80;99.90
9486;DHT22;4781;48.776;9.200;2023-04-21T15:33:48;19.60;99.90
9486;DHT22;4781;48.776;9.200;2023-04-21T15:36:17;19.60;99.90
9486;DHT22;4781;48.776;9.200;2023-04-21T15:38:45;19.70;99.90
9486;DHT22;4781;48.776;9.200;2023-04-21T15:41:14;19.70;99.90
9486;DHT22;4781;48.776;9.200;2023-04-21T15:43:43;19.90;99.90
9486;DHT22;4781;48.776;9.200;2023-04-21T15:46:11;20.00;99.90
9486;DHT22;4781;48.776;9.200;2023-04-21T15:48:40;20.10;99.90
9486;DHT22;4781;48.776;9.200;2023-04-21T15:51:09;19.80;99.90
9486;DHT22;4781;48.776;9.200;2023-04-21T15:53:37;19.60;99.90
9486;DHT22;4781;48.776;9.200;2023-04-21T15:56:08;19.90;99.90
9486;DHT22;4781;48.776;9.200;2023-04-21T15:58:38;19.90;99.90
9486;DHT22;4781;48.776;9.200;2023-04-21T16:01:06;20.00;99.90
9486;DHT22;4781;48.776;9.200;2023-04-21T16:03:35;20.10;99.90
9486;DHT22;4781;48.776;9.200;2023-04-21T16:06:05;20.00;99.90
9486;DHT22;4781;48.776;9.200;2023-04-21T16:08:34;20.10;99.90
9486;DHT22;4781;48.776;9.200;2023-04-21T16:11:02;20.30;99.90
9486;DHT22;4781;48.776;9.200;2023-04-21T16:13:31;20.20;99.90
9486;DHT22;4781;48.776;9.200;2023-04-21T16:16:00;20.00;99.90
9486;DHT22;4781;48.776;9.200;2023-04-21T16:18:28;19.90;99.90
9486;DHT22;4781;48.776;9.200;2023-04-21T16:20:57;19.80;99.90
9486;DHT22;4781;48.776;9.200;2023-04-21T16:23:26;19.80;99.90
9486;DHT22;4781;48.776;9.200;2023-04-21T16:25:55;19.80;99.90
9486;DHT22;4781;48.776;9.200;2023-04-21T16:28:23;19.70;99.90
9486;DHT22;4781;48.776;9.200;2023-04-21T16:30:52;19.60;99.90
9486;DHT22;4781;48.776;9.200;2023-04-21T16:33:20;19.40;99.90
9486;DHT22;4781;48.776;9.200;2023-04-21T16:35:48;19.30;99.90